Lähimmät METAR asemat

 

EFPO - Pori (mil/Civ), Finland
Distance from station: PLU 42km
Päivitetty: 25/04/2018 20:50
Enimmäkseen pilvistä
Enimmäkseen pilvistä
 Wind from LLO
Tuuli: LLO 7 km/h
Lämpötila: 5°C
Wind Chill: 3°C
Kastepiste: 2°C
Kosteus: 81%
Ilmanpaine: 994 hPa
Clouds: Enimmäkseen pilvistä
Visibility: 10 km
Cloud details: Puolipilvistä 1737 m
Enimmäkseen pilvistä 2835 m
2018/04/25 17:50 EFPO 251750Z AUTO 24004KT 9999 SCT057/// BKN093/// 05/02 Q0994
EFTU - Turku/Abo, Finland
Distance from station: E 68km
Päivitetty: 25/04/2018 20:50
Puolipilvistä
Puolipilvistä
 Wind from LO
Tuuli: LO 9 km/h
Lämpötila: 6°C
Wind Chill: 4°C
Kastepiste: 3°C
Kosteus: 81%
Ilmanpaine: 995 hPa
Clouds: Puolipilvistä
Visibility: 10 km
Cloud details: Puolipilvistä 792 m
2018/04/25 17:50 EFTU 251750Z AUTO 22005KT 190V250 9999 SCT026/// 06/03 Q0995
 
EFTP - Tampere/Pirkkala, Finland
Distance from station: IKO 84km
Päivitetty: 25/04/2018 20:50
Enimmäkseen pilvistä
Enimmäkseen pilvistä
 Wind from E
Tuuli: E 11 km/h
Lämpötila: 7°C
Wind Chill: 5°C
Kastepiste: 5°C
Kosteus: 87%
Ilmanpaine: 994 hPa
Clouds: Enimmäkseen pilvistä
Visibility: 10 km
Cloud details: Few Clouds 975 m
Enimmäkseen pilvistä 1128 m
2018/04/25 17:50 EFTP 251750Z AUTO 19006KT 9999 FEW032 BKN037 07/05 Q0994